createdAt,value
2016-03-01T00:00:57.747Z,12.39
2016-03-01T00:01:57.718Z,12.31
2016-03-01T00:02:57.705Z,12.26
2016-03-01T00:03:57.677Z,12.38
2016-03-01T00:04:57.648Z,12.38
2016-03-01T00:05:57.620Z,12.38
2016-03-01T00:06:57.591Z,12.33
2016-03-01T00:07:57.562Z,12.34
2016-03-01T00:08:57.549Z,12.31
2016-03-01T00:09:57.568Z,12.34
2016-03-01T00:10:57.492Z,12.29
2016-03-01T00:11:57.479Z,12.29
2016-03-01T00:12:57.435Z,12.33
2016-03-01T00:13:57.438Z,12.37
2016-03-01T00:14:57.393Z,12.29
2016-03-01T00:15:57.381Z,12.29
2016-03-01T00:16:57.336Z,12.31
2016-03-01T00:17:57.324Z,12.3
2016-03-01T00:18:57.295Z,12.37
2016-03-01T00:19:57.267Z,12.29
2016-03-01T00:20:57.269Z,12.29
2016-03-01T00:21:57.210Z,12.29
2016-03-01T00:22:57.212Z,12.27
2016-03-01T00:23:57.184Z,12.33
2016-03-01T00:24:57.156Z,12.26
2016-03-01T00:25:57.142Z,12.29
2016-03-01T00:26:57.083Z,12.29
2016-03-01T00:27:57.053Z,12.29
2016-03-01T00:28:57.088Z,12.16
2016-03-01T00:29:57.058Z,12.26
2016-03-01T00:30:57.314Z,12.24
2016-03-01T00:31:56.989Z,12.31
2016-03-01T00:32:56.929Z,12.23
2016-03-01T00:33:56.916Z,12.2
2016-03-01T00:34:56.919Z,12.24
2016-03-01T00:35:57.000Z,12.2
2016-03-01T00:36:56.831Z,12.21
2016-03-01T00:37:56.818Z,12.23
2016-03-01T00:38:56.789Z,12.15
2016-03-01T00:39:56.760Z,12.23
2016-03-01T00:40:56.748Z,12.24
2016-03-01T00:41:56.704Z,12.26
2016-03-01T00:42:56.675Z,12.2
2016-03-01T00:43:56.677Z,12.26
2016-03-01T00:44:56.635Z,12.16
2016-03-01T00:45:56.605Z,12.24
2016-03-01T00:46:56.577Z,12.2
2016-03-01T00:47:56.548Z,12.16
2016-03-01T00:48:56.520Z,12.2
2016-03-01T00:49:56.522Z,12.15
2016-03-01T00:50:56.493Z,12.13
2016-03-01T00:51:56.469Z,12.19
2016-03-01T00:52:56.440Z,12.13
2016-03-01T00:53:56.412Z,12.23
2016-03-01T00:54:56.383Z,12.19
2016-03-01T00:55:56.385Z,12.21
2016-03-01T00:56:56.326Z,12.16
2016-03-01T00:57:56.313Z,12.12
2016-03-01T00:58:56.285Z,12.13
2016-03-01T00:59:56.257Z,12.13
2016-03-01T01:00:56.227Z,12.09
2016-03-01T01:01:56.198Z,12.16
2016-03-01T01:02:56.171Z,12.16
2016-03-01T01:03:56.158Z,12.12
2016-03-01T01:04:56.145Z,12.15
2016-03-01T01:05:56.101Z,12.12
2016-03-01T01:06:56.087Z,12.15
2016-03-01T01:07:56.090Z,12.15
2016-03-01T01:08:56.046Z,12.13
2016-03-01T01:09:56.002Z,12.09
2016-03-01T01:10:56.020Z,12.11
2016-03-01T01:11:55.961Z,12.09
2016-03-01T01:12:55.947Z,12.12
2016-03-01T01:13:55.919Z,12.09
2016-03-01T01:14:55.874Z,12.16
2016-03-01T01:15:55.924Z,12.06
2016-03-01T01:16:55.817Z,12.11
2016-03-01T01:17:55.789Z,12.08
2016-03-01T01:18:55.807Z,12.04
2016-03-01T01:19:55.732Z,12.11
2016-03-01T01:20:55.734Z,12.08
2016-03-01T01:21:55.863Z,12.08
2016-03-01T01:22:55.709Z,12.05
2016-03-01T01:23:55.649Z,12.12
2016-03-01T01:24:55.714Z,12.09
2016-03-01T01:25:55.591Z,12.05
2016-03-01T01:26:55.579Z,12.12
2016-03-01T01:27:55.582Z,12.05
2016-03-01T01:28:55.521Z,12.09
2016-03-01T01:29:55.493Z,12.05
2016-03-01T01:30:55.495Z,12.08
2016-03-01T01:31:55.435Z,12.06
2016-03-01T01:32:55.407Z,12.04
2016-03-01T01:33:55.395Z,12.08
2016-03-01T01:34:55.382Z,12.04
2016-03-01T01:35:55.337Z,12.05
2016-03-01T01:36:55.309Z,12.05
2016-03-01T01:37:55.311Z,12.05
2016-03-01T01:38:55.268Z,12.02
2016-03-01T01:39:55.239Z,12.02
2016-03-01T01:40:55.210Z,11.97
2016-03-01T01:41:55.182Z,12.01
2016-03-01T01:42:55.012Z,12.09
2016-03-01T01:43:55.140Z,11.99
2016-03-01T01:44:55.127Z,12.05
2016-03-01T01:45:55.098Z,12.04
2016-03-01T01:46:55.086Z,11.99
2016-03-01T01:47:55.026Z,11.99
2016-03-01T01:48:55.013Z,12.01
2016-03-01T01:49:55.000Z,12.01
2016-03-01T01:50:54.940Z,11.99
2016-03-01T01:51:54.927Z,12.01
2016-03-01T01:52:54.914Z,11.99
2016-03-01T01:53:54.886Z,12.04
2016-03-01T01:54:54.857Z,11.94
2016-03-01T01:55:54.829Z,12.02
2016-03-01T01:56:54.799Z,11.94
2016-03-01T01:57:54.788Z,12.05
2016-03-01T01:58:54.758Z,12.06
2016-03-01T01:59:54.730Z,12.01
2016-03-01T02:00:54.701Z,12.04
2016-03-01T02:01:54.688Z,11.99
2016-03-01T02:02:54.644Z,11.99
2016-03-01T02:03:54.647Z,11.97
2016-03-01T02:04:54.618Z,11.99
2016-03-01T02:05:54.590Z,11.99
2016-03-01T02:06:54.562Z,12.02
2016-03-01T02:07:54.533Z,11.94
2016-03-01T02:08:54.504Z,12.02
2016-03-01T02:09:54.476Z,11.99
2016-03-01T02:10:54.447Z,12.01
2016-03-01T02:11:54.418Z,12.02
2016-03-01T02:12:54.390Z,11.97
2016-03-01T02:13:54.440Z,11.89
2016-03-01T02:14:54.364Z,11.96
2016-03-01T02:15:54.367Z,11.93
2016-03-01T02:16:54.306Z,11.96
2016-03-01T02:17:54.263Z,11.85
2016-03-01T02:18:54.250Z,11.9
2016-03-01T02:19:54.252Z,11.9
2016-03-01T02:20:54.576Z,11.87
2016-03-01T02:21:54.205Z,11.94
2016-03-01T02:22:55.338Z,11.87
2016-03-01T02:23:54.474Z,11.9
2016-03-01T02:24:54.274Z,12.01
2016-03-01T02:25:54.088Z,11.93
2016-03-01T02:26:54.061Z,11.9
2016-03-01T02:27:54.094Z,11.89
2016-03-01T02:28:53.988Z,11.87
2016-03-01T02:29:53.960Z,11.97
2016-03-01T02:30:53.947Z,11.86
2016-03-01T02:31:53.918Z,11.97
2016-03-01T02:32:53.889Z,11.9
2016-03-01T02:33:53.876Z,11.82
2016-03-01T02:34:53.848Z,11.87
2016-03-01T02:35:53.819Z,11.86
2016-03-01T02:36:53.774Z,11.89
2016-03-01T02:37:53.746Z,11.89
2016-03-01T02:38:53.748Z,11.86
2016-03-01T02:39:53.721Z,11.87
2016-03-01T02:40:53.692Z,11.86
2016-03-01T02:41:53.663Z,11.9
2016-03-01T02:42:53.635Z,11.96
2016-03-01T02:43:53.606Z,11.87
2016-03-01T02:44:53.578Z,11.77
2016-03-01T02:45:53.548Z,11.94
2016-03-01T02:46:53.551Z,11.89
2016-03-01T02:47:53.523Z,11.9
2016-03-01T02:48:53.479Z,11.93
2016-03-01T02:49:53.450Z,11.83
2016-03-01T02:50:53.422Z,11.85
2016-03-01T02:51:53.394Z,11.77
2016-03-01T02:52:53.396Z,11.82
2016-03-01T02:53:53.352Z,11.8
2016-03-01T02:54:53.323Z,11.77
2016-03-01T02:55:53.325Z,11.8
2016-03-01T02:56:53.266Z,11.78
2016-03-01T02:57:53.253Z,11.83
2016-03-01T02:58:53.256Z,11.85
2016-03-01T02:59:53.180Z,11.75
2016-03-01T03:00:53.168Z,11.78
2016-03-01T03:01:53.154Z,11.83
2016-03-01T03:02:53.110Z,11.83
2016-03-01T03:03:53.129Z,11.82
2016-03-01T03:04:53.085Z,11.82
2016-03-01T03:05:53.040Z,11.8
2016-03-01T03:06:53.012Z,11.87
2016-03-01T03:07:52.983Z,11.77
2016-03-01T03:08:52.971Z,11.8
2016-03-01T03:09:52.957Z,11.87
2016-03-01T03:10:52.913Z,11.78
2016-03-01T03:11:52.884Z,11.87
2016-03-01T03:12:52.871Z,11.85
2016-03-01T03:13:52.843Z,11.8
2016-03-01T03:14:52.923Z,11.82
2016-03-01T03:15:52.801Z,11.8
2016-03-01T03:16:52.757Z,11.8
2016-03-01T03:17:52.728Z,11.86
2016-03-01T03:18:52.716Z,11.85
2016-03-01T03:19:52.687Z,11.75
2016-03-01T03:20:52.674Z,11.75
2016-03-01T03:21:52.645Z,11.74
2016-03-01T03:22:52.602Z,11.75
2016-03-01T03:23:52.589Z,11.75
2016-03-01T03:24:52.560Z,11.8
2016-03-01T03:25:52.767Z,11.8
2016-03-01T03:26:52.503Z,11.77
2016-03-01T03:27:52.506Z,11.74
2016-03-01T03:28:52.446Z,11.72
2016-03-01T03:29:52.433Z,11.78
2016-03-01T03:30:52.404Z,11.77
2016-03-01T03:31:52.376Z,11.82
2016-03-01T03:32:52.363Z,11.74
2016-03-01T03:33:52.335Z,11.74
2016-03-01T03:34:52.305Z,11.74
2016-03-01T03:35:52.293Z,11.72
2016-03-01T03:36:52.265Z,11.77
2016-03-01T03:37:52.220Z,11.8
2016-03-01T03:38:52.208Z,11.71
2016-03-01T03:39:52.194Z,11.71
2016-03-01T03:40:52.151Z,11.65
2016-03-01T03:41:52.137Z,11.74
2016-03-01T03:42:52.109Z,11.72
2016-03-01T03:43:52.065Z,11.64
2016-03-01T03:44:52.052Z,11.68
2016-03-01T03:45:52.007Z,11.7
2016-03-01T03:46:51.995Z,11.61
2016-03-01T03:47:52.215Z,11.72
2016-03-01T03:48:51.937Z,11.75
2016-03-01T03:49:51.924Z,11.59
2016-03-01T03:50:51.881Z,11.7
2016-03-01T03:51:51.851Z,11.61
2016-03-01T03:52:51.854Z,11.61
2016-03-01T03:53:51.810Z,11.61
2016-03-01T03:54:51.844Z,11.64
2016-03-01T03:55:51.611Z,11.65
2016-03-01T03:56:51.725Z,11.67
2016-03-01T03:57:51.712Z,11.59
2016-03-01T03:58:51.683Z,11.59
2016-03-01T03:59:51.654Z,11.59
2016-03-01T04:00:51.641Z,11.62
2016-03-01T04:01:51.597Z,11.64
2016-03-01T04:02:51.600Z,11.64
2016-03-01T04:03:51.556Z,11.67
2016-03-01T04:04:51.590Z,11.7
2016-03-01T04:05:51.546Z,11.65
2016-03-01T04:06:51.470Z,11.62
2016-03-01T04:07:51.457Z,11.62
2016-03-01T04:08:51.443Z,11.65
2016-03-01T04:09:51.400Z,11.68
2016-03-01T04:10:51.366Z,11.67
2016-03-01T04:11:51.385Z,11.62
2016-03-01T04:12:51.357Z,11.74
2016-03-01T04:13:51.296Z,11.68
2016-03-01T04:14:51.268Z,11.65
2016-03-01T04:15:51.255Z,11.65
2016-03-01T04:16:51.414Z,11.64
2016-03-01T04:17:51.229Z,11.65
2016-03-01T04:18:51.170Z,11.65
2016-03-01T04:19:51.187Z,11.65
2016-03-01T04:20:51.129Z,11.68
2016-03-01T04:21:51.115Z,11.67
2016-03-01T04:22:51.056Z,11.67
2016-03-01T04:23:51.073Z,11.65
2016-03-01T04:24:51.014Z,11.61
2016-03-01T04:25:50.985Z,11.65
2016-03-01T04:26:50.973Z,11.59
2016-03-01T04:27:50.928Z,11.61
2016-03-01T04:28:50.915Z,11.64
2016-03-01T04:29:50.886Z,11.62
2016-03-01T04:30:50.873Z,11.62
2016-03-01T04:31:50.845Z,11.64
2016-03-01T04:32:50.801Z,11.67
2016-03-01T04:33:50.789Z,11.62
2016-03-01T04:34:50.791Z,11.64
2016-03-01T04:35:50.731Z,11.59
2016-03-01T04:36:50.702Z,11.62
2016-03-01T04:37:50.689Z,11.7
2016-03-01T04:38:50.661Z,11.59
2016-03-01T04:39:50.647Z,11.7
2016-03-01T04:40:50.604Z,11.68
2016-03-01T04:41:50.575Z,11.68
2016-03-01T04:42:50.577Z,11.59
2016-03-01T04:43:50.518Z,11.57
2016-03-01T04:44:50.505Z,11.67
2016-03-01T04:45:50.493Z,11.64
2016-03-01T04:46:50.479Z,11.65
2016-03-01T04:47:50.435Z,11.59
2016-03-01T04:48:50.421Z,11.65
2016-03-01T04:49:50.378Z,11.65
2016-03-01T04:50:50.348Z,11.64
2016-03-01T04:51:50.321Z,11.67
2016-03-01T04:52:50.292Z,11.65
2016-03-01T04:53:50.279Z,11.64
2016-03-01T04:54:50.297Z,11.54
2016-03-01T04:55:50.206Z,11.61
2016-03-01T04:56:50.209Z,11.56
2016-03-01T04:57:50.150Z,11.56
2016-03-01T04:58:50.153Z,11.56
2016-03-01T04:59:50.123Z,11.57
2016-03-01T05:00:50.283Z,11.67
2016-03-01T05:01:50.066Z,11.67
2016-03-01T05:02:50.053Z,11.62
2016-03-01T05:03:50.008Z,11.62
2016-03-01T05:04:49.981Z,11.59
2016-03-01T05:05:49.983Z,11.64
2016-03-01T05:06:49.924Z,11.54
2016-03-01T05:07:49.942Z,11.54
2016-03-01T05:08:49.897Z,11.62
2016-03-01T05:09:49.853Z,11.61
2016-03-01T05:10:49.840Z,11.53
2016-03-01T05:11:49.812Z,11.61
2016-03-01T05:12:49.799Z,11.67
2016-03-01T05:13:49.771Z,11.53
2016-03-01T05:14:49.726Z,11.59
2016-03-01T05:15:49.729Z,11.56
2016-03-01T05:16:49.685Z,11.61
2016-03-01T05:17:49.657Z,11.57
2016-03-01T05:18:49.814Z,11.56
2016-03-01T05:19:49.587Z,11.57
2016-03-01T05:20:49.578Z,11.54
2016-03-01T05:21:49.508Z,11.61
2016-03-01T05:22:49.484Z,11.56
2016-03-01T05:23:49.445Z,11.53
2016-03-01T05:24:49.412Z,11.59
2016-03-01T05:25:49.410Z,11.56
2016-03-01T05:26:49.346Z,11.57
2016-03-01T05:27:49.329Z,11.57
2016-03-01T05:28:49.296Z,11.54
2016-03-01T05:29:49.267Z,11.52
2016-03-01T05:30:49.237Z,11.62
2016-03-01T05:31:49.206Z,11.59
2016-03-01T05:32:49.176Z,11.54
2016-03-01T05:33:49.162Z,11.49
2016-03-01T05:34:49.117Z,11.64
2016-03-01T05:35:49.151Z,11.61
2016-03-01T05:36:49.075Z,11.57
2016-03-01T05:37:49.061Z,11.53
2016-03-01T05:38:49.032Z,11.53
2016-03-01T05:39:49.003Z,11.52
2016-03-01T05:40:48.991Z,11.61
2016-03-01T05:41:48.946Z,11.62
2016-03-01T05:42:48.917Z,11.59
2016-03-01T05:43:48.903Z,11.61
2016-03-01T05:44:48.875Z,11.67
2016-03-01T05:45:48.847Z,11.52
2016-03-01T05:46:48.819Z,11.52
2016-03-01T05:47:48.805Z,11.56
2016-03-01T05:48:48.761Z,11.61
2016-03-01T05:49:48.747Z,11.57
2016-03-01T05:50:48.875Z,11.52
2016-03-01T05:51:48.690Z,11.54
2016-03-01T05:52:48.677Z,11.53
2016-03-01T05:53:48.633Z,11.56
2016-03-01T05:54:48.605Z,11.54
2016-03-01T05:55:48.577Z,11.52
2016-03-01T05:56:48.579Z,11.53
2016-03-01T05:57:48.534Z,11.54
2016-03-01T05:58:48.507Z,11.5
2016-03-01T05:59:48.493Z,11.52
2016-03-01T06:00:48.496Z,11.56
2016-03-01T06:01:48.437Z,11.54
2016-03-01T06:02:48.407Z,11.52
2016-03-01T06:03:48.395Z,11.5
2016-03-01T06:04:48.585Z,11.57
2016-03-01T06:05:48.337Z,11.61
2016-03-01T06:06:48.309Z,11.56
2016-03-01T06:07:48.281Z,11.62
2016-03-01T06:08:48.252Z,11.64
2016-03-01T06:09:48.380Z,11.49
2016-03-01T06:10:48.194Z,11.62
2016-03-01T06:11:48.198Z,11.65
2016-03-01T06:12:48.153Z,11.54
2016-03-01T06:13:48.125Z,11.57
2016-03-01T06:14:48.097Z,11.59
2016-03-01T06:15:48.067Z,11.61
2016-03-01T06:16:48.086Z,11.65
2016-03-01T06:17:48.026Z,11.56
2016-03-01T06:18:47.997Z,11.54
2016-03-01T06:19:47.985Z,11.61
2016-03-01T06:20:47.956Z,11.68
2016-03-01T06:21:47.927Z,11.59
2016-03-01T06:22:47.883Z,11.64
2016-03-01T06:23:47.854Z,11.56
2016-03-01T06:24:47.842Z,11.52
2016-03-01T06:25:47.798Z,11.62
2016-03-01T06:26:47.785Z,11.54
2016-03-01T06:27:47.772Z,11.5
2016-03-01T06:28:47.727Z,11.59
2016-03-01T06:29:47.730Z,11.67
2016-03-01T06:30:47.687Z,11.54
2016-03-01T06:31:47.689Z,11.54
2016-03-01T06:32:47.629Z,11.53
2016-03-01T06:33:47.601Z,11.53
2016-03-01T06:34:47.587Z,11.56
2016-03-01T06:35:47.575Z,11.56
2016-03-01T06:36:47.530Z,11.59
2016-03-01T06:37:47.502Z,11.64
2016-03-01T06:38:47.473Z,11.61
2016-03-01T06:39:47.445Z,11.57
2016-03-01T06:40:47.447Z,11.61
2016-03-01T06:41:47.403Z,11.59
2016-03-01T06:42:47.375Z,11.64
2016-03-01T06:43:47.347Z,11.64
2016-03-01T06:44:47.317Z,11.67
2016-03-01T06:45:47.305Z,11.62
2016-03-01T06:46:47.276Z,11.67
2016-03-01T06:47:47.263Z,11.7
2016-03-01T06:48:47.235Z,11.59
2016-03-01T06:49:47.205Z,11.67
2016-03-01T06:50:47.177Z,11.64
2016-03-01T06:51:47.164Z,11.67
2016-03-01T06:52:47.104Z,11.56
2016-03-01T06:53:47.091Z,11.61
2016-03-01T06:54:47.063Z,11.56
2016-03-01T06:55:47.035Z,11.64
2016-03-01T06:56:47.038Z,11.67
2016-03-01T06:57:46.993Z,11.61
2016-03-01T06:58:46.980Z,11.7
2016-03-01T06:59:46.936Z,11.67
2016-03-01T07:00:46.907Z,11.62
2016-03-01T07:01:46.879Z,11.68
2016-03-01T07:02:46.882Z,11.75
2016-03-01T07:03:46.838Z,11.64
2016-03-01T07:04:46.840Z,11.61
2016-03-01T07:05:46.781Z,11.62
2016-03-01T07:06:47.001Z,11.65
2016-03-01T07:07:46.739Z,11.64
2016-03-01T07:08:46.695Z,11.64
2016-03-01T07:09:46.667Z,11.65
2016-03-01T07:10:46.653Z,11.62
2016-03-01T07:11:46.765Z,11.71
2016-03-01T07:12:46.595Z,11.68
2016-03-01T07:13:46.568Z,11.65
2016-03-01T07:14:46.570Z,11.72
2016-03-01T07:15:46.558Z,11.7
2016-03-01T07:16:46.513Z,11.62
2016-03-01T07:17:46.469Z,11.67
2016-03-01T07:18:46.441Z,11.65
2016-03-01T07:19:46.443Z,11.68
2016-03-01T07:20:46.399Z,11.62
2016-03-01T07:21:46.386Z,11.59
2016-03-01T07:22:46.358Z,11.67
2016-03-01T07:23:46.344Z,11.64
2016-03-01T07:24:46.300Z,11.62
2016-03-01T07:25:46.271Z,11.59
2016-03-01T07:26:46.259Z,11.64
2016-03-01T07:27:46.230Z,11.68
2016-03-01T07:28:46.202Z,11.61
2016-03-01T07:29:46.157Z,11.64
2016-03-01T07:30:46.129Z,11.77
2016-03-01T07:31:46.100Z,11.72
2016-03-01T07:32:46.087Z,11.62
2016-03-01T07:33:46.074Z,11.62
2016-03-01T07:34:46.046Z,11.75
2016-03-01T07:35:46.001Z,11.68
2016-03-01T07:36:46.004Z,11.7
2016-03-01T07:37:45.960Z,11.74
2016-03-01T07:38:45.931Z,11.78
2016-03-01T07:39:45.918Z,11.68
2016-03-01T07:40:45.953Z,11.71
2016-03-01T07:41:45.862Z,11.77
2016-03-01T07:42:45.865Z,11.74
2016-03-01T07:43:46.008Z,11.78
2016-03-01T07:44:45.791Z,11.75
2016-03-01T07:45:45.763Z,11.72
2016-03-01T07:46:46.328Z,11.75
2016-03-01T07:47:45.737Z,11.74
2016-03-01T07:48:45.662Z,11.8
2016-03-01T07:49:45.664Z,11.77
2016-03-01T07:50:45.666Z,11.8
2016-03-01T07:51:45.608Z,11.83
2016-03-01T07:52:45.594Z,11.85
2016-03-01T07:53:45.566Z,11.86
2016-03-01T07:54:45.537Z,11.82
2016-03-01T07:55:45.493Z,11.85
2016-03-01T07:56:45.496Z,11.83
2016-03-01T07:57:45.576Z,11.85
2016-03-01T07:58:45.424Z,11.78
2016-03-01T07:59:45.410Z,11.78
2016-03-01T08:00:45.381Z,11.78
2016-03-01T08:01:45.337Z,11.93
2016-03-01T08:02:45.309Z,11.77
2016-03-01T08:03:45.515Z,11.8
2016-03-01T08:04:45.267Z,11.87
2016-03-01T08:05:45.254Z,11.93
2016-03-01T08:06:45.226Z,11.87
2016-03-01T08:07:45.400Z,11.87
2016-03-01T08:08:45.418Z,11.96
2016-03-01T08:09:45.156Z,11.9
2016-03-01T08:10:45.112Z,11.93
2016-03-01T08:11:45.098Z,11.89
2016-03-01T08:12:45.086Z,11.87
2016-03-01T08:13:45.073Z,11.89
2016-03-01T08:14:45.012Z,11.9
2016-03-01T08:15:45.000Z,11.87
2016-03-01T08:16:44.955Z,11.97
2016-03-01T08:17:44.928Z,11.9
2016-03-01T08:18:44.914Z,11.89
2016-03-01T08:19:44.886Z,11.94
2016-03-01T08:20:44.858Z,11.9
2016-03-01T08:21:44.844Z,11.83
2016-03-01T08:22:44.800Z,11.93
2016-03-01T08:23:44.786Z,11.86
2016-03-01T08:24:44.758Z,11.87
2016-03-01T08:25:44.730Z,12.04
2016-03-01T08:26:44.935Z,12.04
2016-03-01T08:27:44.688Z,12.02
2016-03-01T08:28:44.675Z,12.04
2016-03-01T08:29:44.646Z,12.02
2016-03-01T08:30:44.602Z,12.01
2016-03-01T08:31:44.605Z,12.02
2016-03-01T08:32:44.655Z,12.02
2016-03-01T08:33:44.517Z,11.93
2016-03-01T08:34:44.504Z,11.99
2016-03-01T08:35:44.507Z,11.96
2016-03-01T08:36:44.447Z,12.01
2016-03-01T08:37:44.449Z,12.05
2016-03-01T08:38:44.420Z,12.06
2016-03-01T08:39:44.377Z,12.08
2016-03-01T08:40:44.348Z,12.04
2016-03-01T08:41:44.335Z,12.05
2016-03-01T08:42:44.307Z,12.02
2016-03-01T08:43:44.294Z,11.99
2016-03-01T08:44:44.250Z,12.04
2016-03-01T08:45:44.220Z,12.06
2016-03-01T08:46:44.209Z,12.01
2016-03-01T08:47:44.164Z,12.02
2016-03-01T08:48:44.150Z,12.01
2016-03-01T08:49:44.122Z,12.05
2016-03-01T08:50:44.094Z,12.08
2016-03-01T08:51:44.066Z,12.06
2016-03-01T08:52:44.037Z,12.06
2016-03-01T08:53:44.009Z,12.06
2016-03-01T08:54:43.995Z,12.06
2016-03-01T08:55:43.951Z,12.06
2016-03-01T08:56:43.939Z,12.09
2016-03-01T08:57:43.910Z,12.12
2016-03-01T08:58:43.897Z,12.06
2016-03-01T08:59:44.118Z,12.13
2016-03-01T09:00:43.855Z,12.13
2016-03-01T09:01:43.874Z,12.12
2016-03-01T09:02:43.782Z,12.15
2016-03-01T09:03:43.769Z,12.16
2016-03-01T09:04:43.772Z,12.12
2016-03-01T09:05:43.712Z,12.21
2016-03-01T09:06:43.684Z,12.16
2016-03-01T09:07:43.655Z,12.13
2016-03-01T09:08:43.642Z,12.15
2016-03-01T09:09:43.614Z,12.2
2016-03-01T09:10:43.631Z,12.15
2016-03-01T09:11:43.557Z,12.21
2016-03-01T09:12:43.559Z,12.2
2016-03-01T09:13:43.515Z,12.23
2016-03-01T09:14:43.487Z,12.21
2016-03-01T09:15:43.458Z,12.26
2016-03-01T09:16:43.492Z,12.26
2016-03-01T09:17:43.400Z,12.27
2016-03-01T09:18:43.404Z,12.29
2016-03-01T09:19:43.359Z,12.29
2016-03-01T09:20:43.347Z,12.31
2016-03-01T09:21:43.302Z,12.3
2016-03-01T09:22:43.289Z,12.3
2016-03-01T09:23:43.261Z,12.3
2016-03-01T09:24:43.247Z,12.31
2016-03-01T09:25:43.204Z,12.41
2016-03-01T09:26:43.206Z,12.51
2016-03-01T09:27:43.177Z,12.44
2016-03-01T09:28:43.149Z,12.31
2016-03-01T09:29:43.105Z,12.44
2016-03-01T09:30:43.077Z,12.49
2016-03-01T09:31:43.063Z,12.44
2016-03-01T09:32:43.035Z,12.46
2016-03-01T09:33:43.007Z,12.48
2016-03-01T09:34:42.993Z,12.54
2016-03-01T09:35:42.965Z,12.49
2016-03-01T09:36:42.937Z,12.42
2016-03-01T09:37:42.908Z,12.44
2016-03-01T09:38:42.879Z,12.42
2016-03-01T09:39:42.851Z,12.46
2016-03-01T09:40:42.854Z,12.44
2016-03-01T09:41:42.809Z,12.59
2016-03-01T09:42:42.780Z,12.56
2016-03-01T09:43:42.751Z,12.49
2016-03-01T09:44:42.786Z,12.51
2016-03-01T09:45:42.711Z,12.54
2016-03-01T09:46:42.697Z,12.6
2016-03-01T09:47:42.654Z,12.64
2016-03-01T09:48:42.640Z,12.57
2016-03-01T09:49:42.611Z,12.52
2016-03-01T09:50:42.630Z,12.56
2016-03-01T09:51:42.555Z,12.48
2016-03-01T09:52:42.541Z,12.59
2016-03-01T09:53:42.528Z,12.6
2016-03-01T09:54:42.500Z,12.59
2016-03-01T09:55:42.456Z,12.67
2016-03-01T09:56:42.427Z,12.6
2016-03-01T09:57:42.415Z,12.6
2016-03-01T09:58:42.480Z,12.6
2016-03-01T09:59:42.374Z,12.6
2016-03-01T10:00:42.329Z,12.63
2016-03-01T10:01:42.550Z,12.57
2016-03-01T10:02:42.350Z,12.64
2016-03-01T10:03:42.259Z,12.63
2016-03-01T10:04:42.230Z,12.63
2016-03-01T10:05:42.218Z,12.74
2016-03-01T10:06:42.189Z,12.67
2016-03-01T10:07:42.160Z,12.71
2016-03-01T10:08:42.148Z,12.69
2016-03-01T10:09:42.119Z,12.74
2016-03-01T10:10:42.090Z,12.75
2016-03-01T10:11:42.062Z,12.79
2016-03-01T10:12:42.049Z,12.81
2016-03-01T10:13:42.020Z,12.75
2016-03-01T10:14:41.992Z,12.77
2016-03-01T10:15:41.978Z,12.81
2016-03-01T10:16:41.934Z,12.89
2016-03-01T10:17:41.187Z,12.82
2016-03-01T10:18:41.892Z,12.89
2016-03-01T10:19:41.865Z,12.85
2016-03-01T10:20:41.836Z,12.87
2016-03-01T10:21:41.822Z,12.85
2016-03-01T10:22:41.794Z,12.85
2016-03-01T10:23:41.781Z,12.85
2016-03-01T10:24:41.769Z,12.93
2016-03-01T10:25:41.739Z,12.93
2016-03-01T10:26:41.696Z,12.88
2016-03-01T10:27:41.699Z,12.92
2016-03-01T10:28:41.654Z,13.02
2016-03-01T10:29:41.610Z,12.96
2016-03-01T10:30:41.628Z,12.93
2016-03-01T10:31:41.569Z,12.92
2016-03-01T10:32:41.571Z,12.99
2016-03-01T10:33:41.543Z,12.95
2016-03-01T10:34:41.358Z,13
2016-03-01T10:35:41.516Z,12.97
2016-03-01T10:36:41.457Z,12.99
2016-03-01T10:37:41.428Z,13.03
2016-03-01T10:38:41.416Z,13
2016-03-01T10:39:41.371Z,13.03
2016-03-01T10:40:41.359Z,13.04
2016-03-01T10:41:41.315Z,13.04
2016-03-01T10:42:41.317Z,13.04
2016-03-01T10:43:41.273Z,13.03
2016-03-01T10:44:41.307Z,13.06
2016-03-01T10:45:41.263Z,13.03
2016-03-01T10:46:41.500Z,13.03
2016-03-01T10:47:41.173Z,13.07
2016-03-01T10:48:41.146Z,13.09
2016-03-01T10:49:41.133Z,13.12
2016-03-01T10:50:41.401Z,13.12
2016-03-01T10:51:41.435Z,13.18
2016-03-01T10:52:41.062Z,13.07
2016-03-01T10:53:41.033Z,13.15
2016-03-01T10:54:41.021Z,13.14
2016-03-01T10:55:41.039Z,13.15
2016-03-01T10:56:41.152Z,13.15
2016-03-01T10:57:40.935Z,13.18
2016-03-01T10:58:40.922Z,13.27
2016-03-01T10:59:40.925Z,13.21
2016-03-01T11:00:40.880Z,13.22
2016-03-01T11:01:40.837Z,13.25
2016-03-01T11:02:40.808Z,13.27
2016-03-01T11:03:40.796Z,13.22
2016-03-01T11:04:40.782Z,13.22
2016-03-01T11:05:40.738Z,13.24
2016-03-01T11:06:40.741Z,13.27
2016-03-01T11:07:40.696Z,13.3
2016-03-01T11:08:40.980Z,13.24
2016-03-01T11:09:40.640Z,13.32
2016-03-01T11:10:40.627Z,13.29
2016-03-01T11:11:40.629Z,13.38
2016-03-01T11:12:40.570Z,13.33
2016-03-01T11:13:40.557Z,13.36
2016-03-01T11:14:40.528Z,13.33
2016-03-01T11:15:40.531Z,13.36
2016-03-01T11:16:40.471Z,13.37
2016-03-01T11:17:40.458Z,13.37
2016-03-01T11:18:40.429Z,13.38
2016-03-01T11:19:40.416Z,13.38
2016-03-01T11:20:40.388Z,13.4
2016-03-01T11:21:40.375Z,13.36
2016-03-01T11:22:40.331Z,13.44
2016-03-01T11:23:40.302Z,13.47
2016-03-01T11:24:40.289Z,13.41
2016-03-01T11:25:40.260Z,13.36
2016-03-01T11:26:40.248Z,13.52
2016-03-01T11:27:40.203Z,13.49
2016-03-01T11:28:40.206Z,13.47
2016-03-01T11:29:40.161Z,13.49
2016-03-01T11:30:40.149Z,13.54
2016-03-01T11:31:40.121Z,13.49
2016-03-01T11:32:40.091Z,13.44
2016-03-01T11:33:40.064Z,13.49
2016-03-01T11:34:40.066Z,13.49
2016-03-01T11:35:40.021Z,13.47
2016-03-01T11:36:40.009Z,13.51
2016-03-01T11:37:39.965Z,13.52
2016-03-01T11:38:39.952Z,13.52
2016-03-01T11:39:39.938Z,13.52
2016-03-01T11:40:39.941Z,13.51
2016-03-01T11:41:39.882Z,13.52
2016-03-01T11:42:39.884Z,13.51
2016-03-01T11:43:39.841Z,13.58
2016-03-01T11:44:39.874Z,13.59
2016-03-01T11:45:39.784Z,13.58
2016-03-01T11:46:39.770Z,13.56
2016-03-01T11:47:39.992Z,13.59
2016-03-01T11:48:39.760Z,13.59
2016-03-01T11:49:39.715Z,13.55
2016-03-01T11:50:39.656Z,13.56
2016-03-01T11:51:39.643Z,13.58
2016-03-01T11:52:39.661Z,13.59
2016-03-01T11:53:39.634Z,13.61
2016-03-01T11:54:39.558Z,13.63
2016-03-01T11:55:39.545Z,13.65
2016-03-01T11:56:39.531Z,13.62
2016-03-01T11:57:39.503Z,13.61
2016-03-01T11:58:39.474Z,13.76
2016-03-01T11:59:39.461Z,13.69
2016-03-01T12:00:39.432Z,13.73
2016-03-01T12:01:39.420Z,13.73
2016-03-01T12:02:39.375Z,13.63
2016-03-01T12:03:39.363Z,13.74
2016-03-01T12:04:39.335Z,13.73
2016-03-01T12:05:39.321Z,13.63
2016-03-01T12:06:39.278Z,13.71
2016-03-01T12:07:39.265Z,13.69
2016-03-01T12:08:39.236Z,13.74
2016-03-01T12:09:39.208Z,13.79
2016-03-01T12:10:39.179Z,13.69
2016-03-01T12:11:39.167Z,13.69
2016-03-01T12:12:39.138Z,13.76
2016-03-01T12:13:39.125Z,13.63
2016-03-01T12:14:39.113Z,13.69
2016-03-01T12:15:39.083Z,13.79
2016-03-01T12:16:39.055Z,13.74
2016-03-01T12:17:39.105Z,13.8
2016-03-01T12:18:39.013Z,13.77
2016-03-01T12:19:38.844Z,13.71
2016-03-01T12:20:38.971Z,13.71
2016-03-01T12:21:38.928Z,13.8
2016-03-01T12:22:38.915Z,13.74
2016-03-01T12:23:38.887Z,13.67
2016-03-01T12:24:38.905Z,13.76
2016-03-01T12:25:38.845Z,13.76
2016-03-01T12:26:38.831Z,13.73
2016-03-01T12:27:38.787Z,13.69
2016-03-01T12:28:38.759Z,13.65
2016-03-01T12:29:38.761Z,13.74
2016-03-01T12:30:38.717Z,13.77
2016-03-01T12:31:38.689Z,13.74
2016-03-01T12:32:38.692Z,13.77
2016-03-01T12:33:38.648Z,13.69
2016-03-01T12:34:38.634Z,13.81
2016-03-01T12:35:38.606Z,13.74
2016-03-01T12:36:38.624Z,13.69
2016-03-01T12:37:38.550Z,13.76
2016-03-01T12:38:38.598Z,13.69
2016-03-01T12:39:38.507Z,13.77
2016-03-01T12:40:38.683Z,13.71
2016-03-01T12:41:38.450Z,13.73
2016-03-01T12:42:38.438Z,13.67
2016-03-01T12:43:38.425Z,13.67
2016-03-01T12:44:38.412Z,13.63
2016-03-01T12:45:38.883Z,13.71
2016-03-01T12:46:38.355Z,13.74
2016-03-01T12:47:37.623Z,13.63
2016-03-01T12:48:38.282Z,13.74
2016-03-01T12:49:38.550Z,13.67
2016-03-01T12:50:38.240Z,13.71
2016-03-01T12:51:38.227Z,13.67
2016-03-01T12:52:38.199Z,13.73
2016-03-01T12:53:38.217Z,13.71
2016-03-01T12:54:38.141Z,13.65